createdAt,value
2023-02-19T00:01:31.254Z,9.99
2023-02-19T00:04:00.843Z,9.94
2023-02-19T00:06:29.313Z,9.99
2023-02-19T00:08:56.617Z,9.99
2023-02-19T00:11:26.440Z,10.02
2023-02-19T00:13:55.538Z,9.98
2023-02-19T00:16:26.694Z,10.00
2023-02-19T00:18:54.581Z,9.98
2023-02-19T00:21:21.801Z,9.97
2023-02-19T00:23:53.091Z,10.02
2023-02-19T00:26:19.915Z,9.98
2023-02-19T00:28:48.789Z,9.99
2023-02-19T00:31:33.009Z,10.01
2023-02-19T00:34:02.382Z,9.95
2023-02-19T00:36:30.395Z,10.01
2023-02-19T00:38:57.235Z,9.98
2023-02-19T00:41:25.133Z,9.96
2023-02-19T00:44:12.582Z,9.92
2023-02-19T00:46:45.077Z,9.88
2023-02-19T00:49:16.911Z,9.83
2023-02-19T00:51:43.606Z,9.88
2023-02-19T00:54:10.675Z,9.84
2023-02-19T00:56:37.314Z,9.80
2023-02-19T00:59:04.497Z,9.78
2023-02-19T01:01:31.658Z,9.76
2023-02-19T01:03:58.335Z,9.75
2023-02-19T01:06:25.138Z,9.63
2023-02-19T01:08:51.933Z,9.67
2023-02-19T01:11:20.451Z,9.60
2023-02-19T01:13:47.695Z,9.61
2023-02-19T01:16:21.051Z,9.58
2023-02-19T01:18:48.144Z,9.53
2023-02-19T01:21:23.889Z,9.48
2023-02-19T01:23:51.897Z,9.53
2023-02-19T01:26:21.611Z,9.34
2023-02-19T01:28:48.624Z,9.32
2023-02-19T01:31:18.613Z,9.28
2023-02-19T01:33:49.930Z,9.28
2023-02-19T01:36:16.791Z,9.31
2023-02-19T01:38:44.232Z,9.28
2023-02-19T01:41:14.147Z,9.37
2023-02-19T01:44:36.452Z,9.33
2023-02-19T01:47:03.113Z,9.35
2023-02-19T01:49:33.849Z,9.30
2023-02-19T01:52:05.977Z,9.25
2023-02-19T01:54:36.523Z,9.26
2023-02-19T01:57:06.894Z,9.19
2023-02-19T01:59:34.206Z,9.26
2023-02-19T02:02:01.471Z,9.12
2023-02-19T02:04:31.024Z,9.20
2023-02-19T02:06:59.811Z,9.25
2023-02-19T02:09:49.689Z,9.15
2023-02-19T02:12:16.402Z,9.18
2023-02-19T02:14:48.210Z,9.20
2023-02-19T02:17:40.674Z,9.15
2023-02-19T02:20:52.016Z,9.16
2023-02-19T02:24:03.021Z,9.22
2023-02-19T02:27:04.726Z,9.05
2023-02-19T02:29:50.570Z,9.05
2023-02-19T02:32:43.254Z,8.95
2023-02-19T02:35:13.589Z,8.95
2023-02-19T02:37:43.673Z,8.99
2023-02-19T02:40:12.100Z,8.83
2023-02-19T02:42:40.243Z,8.77
2023-02-19T02:45:37.343Z,8.79
2023-02-19T02:48:25.911Z,8.66
2023-02-19T02:50:58.440Z,8.67
2023-02-19T02:53:47.569Z,8.62
2023-02-19T02:56:16.717Z,8.63
2023-02-19T02:58:44.735Z,8.68
2023-02-19T03:01:37.096Z,8.63
2023-02-19T03:04:09.824Z,8.65
2023-02-19T03:06:38.056Z,8.68
2023-02-19T03:09:15.226Z,8.60
2023-02-19T03:12:05.188Z,8.62
2023-02-19T03:15:05.167Z,8.66
2023-02-19T03:17:59.245Z,8.75
2023-02-19T03:20:27.479Z,8.74
2023-02-19T03:22:56.798Z,8.78
2023-02-19T03:25:53.751Z,8.70
2023-02-19T03:28:43.906Z,8.71
2023-02-19T03:31:14.002Z,8.79
2023-02-19T03:33:42.907Z,8.71
2023-02-19T03:36:15.324Z,8.77
2023-02-19T03:38:53.101Z,8.75
2023-02-19T03:41:33.561Z,8.72
2023-02-19T03:44:38.849Z,8.71
2023-02-19T03:47:37.885Z,8.62
2023-02-19T03:50:36.874Z,8.63
2023-02-19T03:53:32.975Z,8.52
2023-02-19T03:56:32.091Z,8.59
2023-02-19T03:59:13.393Z,8.60
2023-02-19T04:02:09.433Z,8.62
2023-02-19T04:04:52.054Z,8.60
2023-02-19T04:07:18.770Z,8.58
2023-02-19T04:09:48.877Z,8.54
2023-02-19T04:12:19.184Z,8.58
2023-02-19T04:15:14.378Z,8.60
2023-02-19T04:18:05.441Z,8.59
2023-02-19T04:20:38.287Z,8.61
2023-02-19T04:23:05.319Z,8.53
2023-02-19T04:25:33.493Z,8.57
2023-02-19T04:28:00.207Z,8.63
2023-02-19T04:30:27.071Z,8.58
2023-02-19T04:32:53.774Z,8.67
2023-02-19T04:35:20.398Z,8.67
2023-02-19T04:37:46.978Z,8.69
2023-02-19T04:40:13.601Z,8.63
2023-02-19T04:42:40.192Z,8.66
2023-02-19T04:45:07.454Z,8.66
2023-02-19T04:47:34.074Z,8.71
2023-02-19T04:50:00.630Z,8.72
2023-02-19T04:52:27.255Z,8.63
2023-02-19T04:54:53.861Z,8.59
2023-02-19T04:57:20.468Z,8.65
2023-02-19T04:59:47.273Z,8.60
2023-02-19T05:02:13.888Z,8.62
2023-02-19T05:04:41.241Z,8.61
2023-02-19T05:07:08.053Z,8.67
2023-02-19T05:09:34.669Z,8.69
2023-02-19T05:12:01.398Z,8.70
2023-02-19T05:14:28.011Z,8.73
2023-02-19T05:16:54.596Z,8.66
2023-02-19T05:19:21.262Z,8.56
2023-02-19T05:21:47.866Z,8.50
2023-02-19T05:24:14.506Z,8.45
2023-02-19T05:26:41.109Z,8.37
2023-02-19T05:29:07.713Z,8.42
2023-02-19T05:31:34.376Z,8.44
2023-02-19T05:34:01.242Z,8.44
2023-02-19T05:36:27.920Z,8.52
2023-02-19T05:38:55.790Z,8.59
2023-02-19T05:41:25.298Z,8.58
2023-02-19T05:43:52.299Z,8.60
2023-02-19T05:46:21.304Z,8.59
2023-02-19T05:48:49.266Z,8.63
2023-02-19T05:51:18.692Z,8.62
2023-02-19T05:53:45.587Z,8.67
2023-02-19T05:56:30.502Z,8.62
2023-02-19T05:58:57.798Z,8.65
2023-02-19T06:01:26.947Z,8.58
2023-02-19T06:03:57.093Z,8.62
2023-02-19T06:06:25.577Z,8.66
2023-02-19T06:08:52.163Z,8.61
2023-02-19T06:11:19.051Z,8.59
2023-02-19T06:13:46.102Z,8.57
2023-02-19T06:16:12.996Z,8.54
2023-02-19T06:18:42.454Z,8.47
2023-02-19T06:21:10.904Z,8.43
2023-02-19T06:23:38.235Z,8.34
2023-02-19T06:26:13.989Z,8.37
2023-02-19T06:28:41.867Z,8.33
2023-02-19T06:31:09.972Z,8.24
2023-02-19T06:33:40.620Z,8.23
2023-02-19T06:36:11.403Z,8.26
2023-02-19T06:38:37.998Z,8.21
2023-02-19T06:41:07.001Z,8.24
2023-02-19T06:43:34.317Z,8.32
2023-02-19T06:46:02.292Z,8.29
2023-02-19T06:48:29.879Z,8.27
2023-02-19T06:50:56.947Z,8.16
2023-02-19T06:53:24.157Z,8.05
2023-02-19T06:56:27.606Z,8.01
2023-02-19T06:58:56.760Z,7.99
2023-02-19T07:01:24.273Z,7.89
2023-02-19T07:03:52.605Z,7.91
2023-02-19T07:06:20.222Z,7.93
2023-02-19T07:08:46.999Z,7.98
2023-02-19T07:11:13.626Z,8.01
2023-02-19T07:13:40.487Z,8.03
2023-02-19T07:16:09.363Z,8.12
2023-02-19T07:18:36.049Z,8.15
2023-02-19T07:21:13.845Z,8.24
2023-02-19T07:23:41.981Z,8.23
2023-02-19T07:26:10.381Z,8.27
2023-02-19T07:28:36.987Z,8.29
2023-02-19T07:31:05.051Z,8.33
2023-02-19T07:33:31.719Z,8.34
2023-02-19T07:35:58.370Z,8.27
2023-02-19T07:38:26.010Z,8.33
2023-02-19T07:41:00.434Z,8.38
2023-02-19T07:43:30.067Z,8.44
2023-02-19T07:45:57.013Z,8.48
2023-02-19T07:48:23.724Z,8.57
2023-02-19T07:50:59.502Z,8.60
2023-02-19T07:53:27.993Z,8.66
2023-02-19T07:55:59.196Z,8.70
2023-02-19T07:58:25.846Z,8.72
2023-02-19T08:00:52.534Z,8.78
2023-02-19T08:03:19.182Z,8.80
2023-02-19T08:05:46.069Z,8.84
2023-02-19T08:08:14.655Z,8.90
2023-02-19T08:11:00.226Z,8.89
2023-02-19T08:13:30.086Z,8.98
2023-02-19T08:16:18.289Z,9.07
2023-02-19T08:18:48.708Z,9.01
2023-02-19T08:21:18.106Z,9.07
2023-02-19T08:23:46.257Z,9.14
2023-02-19T08:26:13.436Z,9.22
2023-02-19T08:28:40.246Z,9.22
2023-02-19T08:31:08.934Z,9.21
2023-02-19T08:33:37.844Z,9.16
2023-02-19T08:36:06.843Z,9.30
2023-02-19T08:38:35.949Z,9.30
2023-02-19T08:41:07.406Z,9.34
2023-02-19T08:43:34.794Z,9.42
2023-02-19T08:46:01.644Z,9.37
2023-02-19T08:48:28.862Z,9.36
2023-02-19T08:50:56.815Z,9.35
2023-02-19T08:53:24.793Z,9.47
2023-02-19T08:55:52.043Z,9.48
2023-02-19T08:58:18.683Z,9.60
2023-02-19T09:00:45.352Z,9.61
2023-02-19T09:03:12.073Z,9.60
2023-02-19T09:05:39.166Z,9.55
2023-02-19T09:08:05.883Z,9.57
2023-02-19T09:10:32.527Z,9.57
2023-02-19T09:12:59.078Z,9.63
2023-02-19T09:15:25.798Z,9.57
2023-02-19T09:17:53.051Z,9.51
2023-02-19T09:20:19.997Z,9.32
2023-02-19T09:22:46.705Z,9.44
2023-02-19T09:25:13.280Z,9.32
2023-02-19T09:27:39.856Z,9.07
2023-02-19T09:30:07.338Z,8.96
2023-02-19T09:32:33.979Z,8.50
2023-02-19T09:35:00.574Z,7.76
2023-02-19T09:37:27.920Z,7.23
2023-02-19T09:39:55.060Z,7.14
2023-02-19T09:42:29.841Z,7.24
2023-02-19T09:44:59.889Z,7.39
2023-02-19T09:47:30.175Z,7.47
2023-02-19T09:50:01.140Z,7.46
2023-02-19T09:52:49.788Z,7.37
2023-02-19T09:55:32.516Z,7.29
2023-02-19T09:58:00.154Z,7.37
2023-02-19T10:00:30.588Z,7.38
2023-02-19T10:03:13.317Z,7.47
2023-02-19T10:05:40.893Z,7.63
2023-02-19T10:08:14.831Z,7.77
2023-02-19T10:10:41.682Z,7.91
2023-02-19T10:13:23.476Z,8.07
2023-02-19T10:15:56.316Z,8.12
2023-02-19T10:18:29.100Z,8.19
2023-02-19T10:20:57.066Z,8.21
2023-02-19T10:23:25.801Z,8.27
2023-02-19T10:25:57.876Z,8.25
2023-02-19T10:28:34.042Z,8.16
2023-02-19T10:31:03.977Z,8.17
2023-02-19T10:33:30.796Z,8.28
2023-02-19T10:36:07.785Z,8.37
2023-02-19T10:38:35.979Z,8.49
2023-02-19T10:41:18.490Z,8.67
2023-02-19T10:44:09.416Z,8.68
2023-02-19T10:46:42.251Z,8.81
2023-02-19T10:49:40.232Z,8.98
2023-02-19T10:52:24.211Z,9.10
2023-02-19T10:55:14.788Z,9.18
2023-02-19T10:57:41.484Z,9.38
2023-02-19T11:00:27.407Z,9.60
2023-02-19T11:03:23.875Z,9.79
2023-02-19T11:06:02.820Z,9.79
2023-02-19T11:08:32.267Z,10.03
2023-02-19T11:10:59.146Z,10.16
2023-02-19T11:13:32.737Z,10.33
2023-02-19T11:16:00.764Z,10.39
2023-02-19T11:18:30.672Z,10.53
2023-02-19T11:21:07.447Z,10.63
2023-02-19T11:23:44.691Z,10.75
2023-02-19T11:26:20.872Z,10.72
2023-02-19T11:28:56.967Z,10.78
2023-02-19T11:31:29.598Z,10.77
2023-02-19T11:33:57.981Z,10.76
2023-02-19T11:36:30.125Z,10.72
2023-02-19T11:38:57.667Z,10.58
2023-02-19T11:41:57.981Z,10.39
2023-02-19T11:45:02.165Z,10.18
2023-02-19T11:48:06.243Z,10.22
2023-02-19T11:51:25.428Z,10.24
2023-02-19T11:54:04.383Z,10.31
2023-02-19T11:56:37.168Z,10.27
2023-02-19T11:59:12.191Z,10.30
2023-02-19T12:01:52.775Z,10.27
2023-02-19T12:04:56.998Z,10.29
2023-02-19T12:11:08.091Z,10.24
2023-02-19T12:13:46.724Z,10.18
2023-02-19T12:16:50.208Z,10.15
2023-02-19T12:19:47.791Z,10.11
2023-02-19T12:22:41.064Z,10.31
2023-02-19T12:25:44.834Z,10.57
2023-02-19T12:32:13.330Z,10.74
2023-02-19T12:41:43.534Z,10.55
2023-02-19T12:44:21.339Z,10.43
2023-02-19T12:46:52.222Z,10.27
2023-02-19T12:49:37.747Z,10.34
2023-02-19T12:55:24.795Z,10.01
2023-02-19T12:57:52.886Z,10.12
2023-02-19T13:00:49.463Z,9.84
2023-02-19T13:03:28.556Z,9.77
2023-02-19T13:06:13.662Z,9.92
2023-02-19T13:09:06.279Z,10.08
2023-02-19T13:11:49.408Z,10.23
2023-02-19T13:14:29.948Z,10.29
2023-02-19T13:17:20.447Z,10.31
2023-02-19T13:19:50.387Z,10.43
2023-02-19T13:22:48.200Z,10.60
2023-02-19T13:25:16.823Z,10.70
2023-02-19T13:28:09.774Z,10.58
2023-02-19T13:30:43.327Z,10.56
2023-02-19T13:33:32.262Z,10.39
2023-02-19T13:36:37.286Z,10.49
2023-02-19T13:39:07.245Z,10.45
2023-02-19T13:41:41.935Z,10.35
2023-02-19T13:44:19.928Z,10.28
2023-02-19T13:46:49.104Z,10.24
2023-02-19T13:49:40.024Z,10.29
2023-02-19T13:52:43.400Z,10.39
2023-02-19T13:55:51.392Z,10.28
2023-02-19T13:58:37.828Z,10.23
2023-02-19T14:01:09.706Z,10.16
2023-02-19T14:04:07.842Z,10.00
2023-02-19T14:07:22.824Z,10.08
2023-02-19T14:09:49.642Z,9.95
2023-02-19T14:12:22.383Z,9.94
2023-02-19T14:14:53.417Z,9.95
2023-02-19T14:17:39.689Z,10.04
2023-02-19T14:20:29.236Z,10.00
2023-02-19T14:23:02.223Z,10.08
2023-02-19T14:25:39.027Z,10.05
2023-02-19T14:28:40.656Z,9.99
2023-02-19T14:31:33.312Z,10.02
2023-02-19T14:34:19.506Z,10.01
2023-02-19T14:37:01.304Z,9.97
2023-02-19T14:39:35.097Z,9.95
2023-02-19T14:42:12.476Z,9.97
2023-02-19T14:44:53.016Z,9.96
2023-02-19T14:47:23.148Z,10.03
2023-02-19T14:49:58.409Z,10.06
2023-02-19T14:52:32.029Z,10.04
2023-02-19T14:55:33.834Z,10.09
2023-02-19T14:58:06.475Z,10.00
2023-02-19T15:00:38.988Z,9.97
2023-02-19T15:03:05.985Z,9.92
2023-02-19T15:05:37.508Z,9.90
2023-02-19T15:08:12.025Z,9.92
2023-02-19T15:10:42.200Z,9.86
2023-02-19T15:13:12.089Z,9.81
2023-02-19T15:15:44.981Z,9.86
2023-02-19T15:18:26.246Z,9.82
2023-02-19T15:21:01.437Z,9.84
2023-02-19T15:23:30.784Z,9.86
2023-02-19T15:25:58.300Z,9.88
2023-02-19T15:28:34.322Z,9.76
2023-02-19T15:31:15.051Z,9.67
2023-02-19T15:33:50.542Z,9.65
2023-02-19T15:36:24.277Z,9.61
2023-02-19T15:38:56.905Z,9.53
2023-02-19T15:41:26.577Z,9.53
2023-02-19T15:44:10.208Z,9.39
2023-02-19T15:46:38.203Z,9.45
2023-02-19T15:49:14.803Z,9.45
2023-02-19T15:52:05.937Z,9.37
2023-02-19T15:54:55.619Z,9.32
2023-02-19T15:57:29.890Z,9.37
2023-02-19T16:00:45.636Z,9.34
2023-02-19T16:03:21.061Z,9.33
2023-02-19T16:06:01.943Z,9.32
2023-02-19T16:08:38.273Z,9.29
2023-02-19T16:11:29.952Z,9.25
2023-02-19T16:14:16.014Z,9.20
2023-02-19T16:16:43.953Z,9.17
2023-02-19T16:19:11.094Z,9.06
2023-02-19T16:21:38.198Z,8.78
2023-02-19T16:24:22.112Z,8.69
2023-02-19T16:26:48.780Z,8.46
2023-02-19T16:29:25.357Z,8.31
2023-02-19T16:31:55.032Z,8.26
2023-02-19T16:34:40.935Z,8.22
2023-02-19T16:37:36.902Z,8.23
2023-02-19T16:41:05.175Z,8.27
2023-02-19T16:43:41.034Z,8.26
2023-02-19T16:46:10.753Z,8.26
2023-02-19T16:48:38.111Z,8.34
2023-02-19T16:51:12.139Z,8.29
2023-02-19T16:53:38.946Z,8.27
2023-02-19T16:56:06.264Z,8.32
2023-02-19T16:58:32.923Z,8.30
2023-02-19T17:00:59.629Z,8.31
2023-02-19T17:03:26.335Z,8.28
2023-02-19T17:05:53.292Z,8.27
2023-02-19T17:08:38.159Z,8.27
2023-02-19T17:11:10.226Z,8.31
2023-02-19T17:13:37.137Z,8.29
2023-02-19T17:16:04.273Z,8.30
2023-02-19T17:18:30.983Z,8.24
2023-02-19T17:21:13.869Z,8.33
2023-02-19T17:23:40.643Z,8.28
2023-02-19T17:26:07.322Z,8.35
2023-02-19T17:28:33.916Z,8.32
2023-02-19T17:31:00.601Z,8.37
2023-02-19T17:33:27.236Z,8.34
2023-02-19T17:35:53.924Z,8.33
2023-02-19T17:38:20.656Z,8.34
2023-02-19T17:40:47.384Z,8.31
2023-02-19T17:43:14.663Z,8.34
2023-02-19T17:45:41.568Z,8.37
2023-02-19T17:48:13.258Z,8.33
2023-02-19T17:50:40.391Z,8.39
2023-02-19T17:53:07.577Z,8.41
2023-02-19T17:55:35.133Z,8.33
2023-02-19T17:58:01.792Z,8.39
2023-02-19T18:00:31.640Z,8.41
2023-02-19T18:02:58.636Z,8.38
2023-02-19T18:05:25.279Z,8.46
2023-02-19T18:07:52.132Z,8.41
2023-02-19T18:10:20.229Z,8.47
2023-02-19T18:12:47.129Z,8.43
2023-02-19T18:15:19.880Z,8.45
2023-02-19T18:17:46.572Z,8.42
2023-02-19T18:20:16.072Z,8.36
2023-02-19T18:22:43.066Z,8.39
2023-02-19T18:25:10.461Z,8.43
2023-02-19T18:27:37.361Z,8.39
2023-02-19T18:30:04.505Z,8.36
2023-02-19T18:32:31.172Z,8.36
2023-02-19T18:35:00.076Z,8.33
2023-02-19T18:37:28.071Z,8.30
2023-02-19T18:39:54.659Z,8.24
2023-02-19T18:42:22.197Z,8.21
2023-02-19T18:44:49.948Z,8.22
2023-02-19T18:47:17.596Z,8.14
2023-02-19T18:49:49.210Z,8.17
2023-02-19T18:52:20.279Z,8.14
2023-02-19T18:54:48.456Z,8.22
2023-02-19T18:57:15.902Z,8.20
2023-02-19T18:59:43.140Z,8.18
2023-02-19T19:02:10.758Z,8.22
2023-02-19T19:04:39.011Z,8.17
2023-02-19T19:07:06.439Z,8.15
2023-02-19T19:09:33.888Z,8.12
2023-02-19T19:12:00.768Z,8.17
2023-02-19T19:14:27.908Z,8.09
2023-02-19T19:16:56.261Z,8.07
2023-02-19T19:19:22.885Z,8.04
2023-02-19T19:21:54.513Z,8.02
2023-02-19T19:24:23.651Z,7.93
2023-02-19T19:26:51.395Z,7.95
2023-02-19T19:29:19.775Z,7.94
2023-02-19T19:31:47.073Z,7.92
2023-02-19T19:34:14.855Z,7.93
2023-02-19T19:36:41.526Z,7.81
2023-02-19T19:39:09.130Z,7.88
2023-02-19T19:41:35.945Z,7.82
2023-02-19T19:44:08.771Z,7.75
2023-02-19T19:46:35.584Z,7.71
2023-02-19T19:49:02.189Z,7.58
2023-02-19T19:51:35.402Z,7.53
2023-02-19T19:54:04.352Z,7.44
2023-02-19T19:56:31.553Z,7.29
2023-02-19T19:58:58.129Z,7.17
2023-02-19T20:01:24.784Z,7.12
2023-02-19T20:03:51.395Z,7.11
2023-02-19T20:06:44.468Z,7.10
2023-02-19T20:09:11.068Z,7.11
2023-02-19T20:11:44.562Z,7.12
2023-02-19T20:14:11.278Z,7.19
2023-02-19T20:16:38.009Z,7.29
2023-02-19T20:19:04.842Z,7.25
2023-02-19T20:21:32.080Z,7.18
2023-02-19T20:23:58.660Z,7.28
2023-02-19T20:26:27.125Z,7.27
2023-02-19T20:28:54.855Z,7.28
2023-02-19T20:31:22.705Z,7.27
2023-02-19T20:33:51.119Z,7.38
2023-02-19T20:36:20.004Z,7.37
2023-02-19T20:38:47.289Z,7.44
2023-02-19T20:41:14.149Z,7.45
2023-02-19T20:43:40.872Z,7.47
2023-02-19T20:46:07.784Z,7.58
2023-02-19T20:48:34.514Z,7.61
2023-02-19T20:51:01.372Z,7.60
2023-02-19T20:53:29.208Z,7.58
2023-02-19T20:55:56.242Z,7.69
2023-02-19T20:58:23.514Z,7.67
2023-02-19T21:00:53.304Z,7.63
2023-02-19T21:03:20.770Z,7.72
2023-02-19T21:05:47.470Z,7.71
2023-02-19T21:08:15.074Z,7.69
2023-02-19T21:10:41.716Z,7.70
2023-02-19T21:13:08.354Z,7.79
2023-02-19T21:15:35.770Z,7.72
2023-02-19T21:18:04.916Z,7.70
2023-02-19T21:20:31.800Z,7.73
2023-02-19T21:22:58.434Z,7.73
2023-02-19T21:25:25.283Z,7.77
2023-02-19T21:27:51.994Z,7.78
2023-02-19T21:30:18.905Z,7.76
2023-02-19T21:32:45.562Z,7.75
2023-02-19T21:35:12.398Z,7.78
2023-02-19T21:37:42.257Z,7.80
2023-02-19T21:40:09.640Z,7.73
2023-02-19T21:42:36.370Z,7.78
2023-02-19T21:45:03.732Z,7.78
2023-02-19T21:47:30.331Z,7.72
2023-02-19T21:49:56.963Z,7.71
2023-02-19T21:52:23.619Z,7.60
2023-02-19T21:54:50.252Z,7.67
2023-02-19T21:57:17.340Z,7.74
2023-02-19T21:59:43.938Z,7.69
2023-02-19T22:02:10.600Z,7.70
2023-02-19T22:04:37.257Z,7.70
2023-02-19T22:07:03.932Z,7.69
2023-02-19T22:09:30.604Z,7.67
2023-02-19T22:11:57.266Z,7.63
2023-02-19T22:14:23.917Z,7.69
2023-02-19T22:16:51.775Z,7.67
2023-02-19T22:19:18.504Z,7.70
2023-02-19T22:21:45.575Z,7.63
2023-02-19T22:24:17.782Z,7.61
2023-02-19T22:26:45.620Z,7.59
2023-02-19T22:29:14.804Z,7.60
2023-02-19T22:31:41.824Z,7.67
2023-02-19T22:34:09.359Z,7.63
2023-02-19T22:36:39.780Z,7.76
2023-02-19T22:39:08.058Z,7.73
2023-02-19T22:41:35.207Z,7.75
2023-02-19T22:44:02.400Z,7.80
2023-02-19T22:46:30.566Z,7.72
2023-02-19T22:48:58.257Z,7.70
2023-02-19T22:51:25.796Z,7.83
2023-02-19T22:53:55.252Z,7.76
2023-02-19T22:56:24.313Z,7.69
2023-02-19T22:58:51.628Z,7.80
2023-02-19T23:01:18.906Z,7.69
2023-02-19T23:03:51.338Z,7.73
2023-02-19T23:06:23.287Z,7.73
2023-02-19T23:08:50.100Z,7.76
2023-02-19T23:11:29.096Z,7.77
2023-02-19T23:13:56.351Z,7.84
2023-02-19T23:16:23.233Z,7.80
2023-02-19T23:18:50.240Z,7.74
2023-02-19T23:21:17.607Z,7.57
2023-02-19T23:23:45.518Z,7.57
2023-02-19T23:26:13.719Z,7.44
2023-02-19T23:28:41.739Z,7.43
2023-02-19T23:31:08.963Z,7.39
2023-02-19T23:33:35.790Z,7.40
2023-02-19T23:36:02.418Z,7.43
2023-02-19T23:38:29.105Z,7.36
2023-02-19T23:40:55.734Z,7.41
2023-02-19T23:43:22.356Z,7.40
2023-02-19T23:45:49.061Z,7.37
2023-02-19T23:48:15.870Z,7.40
2023-02-19T23:50:42.511Z,7.41
2023-02-19T23:53:09.520Z,7.42
2023-02-19T23:55:36.127Z,7.46
2023-02-19T23:58:02.910Z,7.48
